createdAt,value
2022-11-12T00:00:55.036Z,8.94
2022-11-12T00:06:16.055Z,8.79
2022-11-12T00:11:38.339Z,8.81
2022-11-12T00:16:59.361Z,8.63
2022-11-12T00:22:21.029Z,8.71
2022-11-12T00:27:43.643Z,8.64
2022-11-12T00:33:05.995Z,8.60
2022-11-12T00:38:27.190Z,8.53
2022-11-12T00:43:50.652Z,8.55
2022-11-12T00:49:11.966Z,8.60
2022-11-12T00:54:33.284Z,8.51
2022-11-12T00:59:55.918Z,8.27
2022-11-12T01:05:18.431Z,8.54
2022-11-12T01:10:39.549Z,8.54
2022-11-12T01:16:06.221Z,8.55
2022-11-12T01:21:29.152Z,8.47
2022-11-12T01:26:50.628Z,8.46
2022-11-12T01:32:13.248Z,8.51
2022-11-12T01:37:34.500Z,8.42
2022-11-12T01:42:55.660Z,8.38
2022-11-12T01:48:27.799Z,8.44
2022-11-12T01:53:52.249Z,8.08
2022-11-12T01:59:18.079Z,8.25
2022-11-12T02:04:43.498Z,8.17
2022-11-12T02:10:08.715Z,8.16
2022-11-12T02:15:30.327Z,8.25
2022-11-12T02:20:57.967Z,8.15
2022-11-12T02:26:20.770Z,8.07
2022-11-12T02:31:42.193Z,8.04
2022-11-12T02:37:03.199Z,8.09
2022-11-12T02:42:25.901Z,7.97
2022-11-12T02:47:47.591Z,7.82
2022-11-12T02:53:09.330Z,7.88
2022-11-12T02:58:32.245Z,8.02
2022-11-12T03:03:54.260Z,7.98
2022-11-12T03:09:15.589Z,8.00
2022-11-12T03:14:38.312Z,7.83
2022-11-12T03:19:59.724Z,7.84
2022-11-12T03:25:20.810Z,7.80
2022-11-12T03:30:44.760Z,7.93
2022-11-12T03:36:06.396Z,7.91
2022-11-12T03:41:27.542Z,7.91
2022-11-12T03:46:49.973Z,7.80
2022-11-12T03:52:11.223Z,7.82
2022-11-12T03:57:33.073Z,7.87
2022-11-12T04:02:55.768Z,7.79
2022-11-12T04:08:36.992Z,7.76
2022-11-12T04:21:03.103Z,7.83
2022-11-12T04:26:24.447Z,7.90
2022-11-12T04:31:45.536Z,7.88
2022-11-12T04:37:08.534Z,8.06
2022-11-12T04:42:47.531Z,8.14
2022-11-12T04:48:09.177Z,8.26
2022-11-12T04:53:31.876Z,8.31
2022-11-12T04:58:53.069Z,8.34
2022-11-12T05:04:15.132Z,8.37
2022-11-12T05:09:38.490Z,8.34
2022-11-12T05:14:59.591Z,8.09
2022-11-12T05:20:20.842Z,8.19
2022-11-12T05:25:43.283Z,7.98
2022-11-12T05:31:04.362Z,7.94
2022-11-12T05:36:25.679Z,7.91
2022-11-12T05:42:11.269Z,7.98
2022-11-12T05:47:29.879Z,7.63
2022-11-12T05:52:51.158Z,7.97
2022-11-12T05:58:13.882Z,7.94
2022-11-12T06:03:35.193Z,7.82
2022-11-12T06:08:56.195Z,7.73
2022-11-12T06:14:18.827Z,7.75
2022-11-12T06:19:39.782Z,7.89
2022-11-12T06:25:01.277Z,7.79
2022-11-12T06:30:25.853Z,7.34
2022-11-12T06:35:47.563Z,7.66
2022-11-12T06:41:11.505Z,7.54
2022-11-12T06:46:34.764Z,7.57
2022-11-12T06:51:55.797Z,7.54
2022-11-12T06:57:16.876Z,7.61
2022-11-12T07:02:39.276Z,7.73
2022-11-12T07:08:00.404Z,7.73
2022-11-12T07:13:22.341Z,7.65
2022-11-12T07:18:45.946Z,7.74
2022-11-12T07:24:08.031Z,7.80
2022-11-12T07:29:46.509Z,7.84
2022-11-12T07:35:10.715Z,7.93
2022-11-12T07:40:32.236Z,8.00
2022-11-12T07:45:53.873Z,8.14
2022-11-12T07:51:18.227Z,8.27
2022-11-12T07:56:39.431Z,8.36
2022-11-12T08:02:00.818Z,8.40
2022-11-12T08:07:23.529Z,8.44
2022-11-12T08:12:45.107Z,8.66
2022-11-12T08:18:06.487Z,8.59
2022-11-12T08:23:29.072Z,9.16
2022-11-12T08:28:50.418Z,9.34
2022-11-12T08:34:19.972Z,9.55
2022-11-12T08:39:44.722Z,9.72
2022-11-12T08:45:06.481Z,9.85
2022-11-12T08:50:29.812Z,10.01
2022-11-12T08:55:55.074Z,10.04
2022-11-12T09:01:16.384Z,10.31
2022-11-12T09:06:37.594Z,10.18
2022-11-12T09:12:03.197Z,10.44
2022-11-12T09:17:29.054Z,10.74
2022-11-12T09:22:50.372Z,10.89
2022-11-12T09:28:14.271Z,10.97
2022-11-12T09:33:35.518Z,11.08
2022-11-12T09:38:56.930Z,11.17
2022-11-12T09:44:24.280Z,10.89
2022-11-12T09:49:50.895Z,11.19
2022-11-12T09:55:19.800Z,11.51
2022-11-12T10:00:53.563Z,11.57
2022-11-12T10:06:20.410Z,11.74
2022-11-12T10:12:15.315Z,11.81
2022-11-12T10:17:42.863Z,11.77
2022-11-12T10:23:16.760Z,12.04
2022-11-12T10:28:44.014Z,12.18
2022-11-12T10:34:20.529Z,12.24
2022-11-12T10:39:43.983Z,12.39
2022-11-12T10:45:21.151Z,12.48
2022-11-12T10:50:44.298Z,12.59
2022-11-12T10:56:23.806Z,12.66
2022-11-12T11:01:46.375Z,12.77
2022-11-12T11:07:21.118Z,12.83
2022-11-12T11:12:42.574Z,12.60
2022-11-12T11:18:04.088Z,13.25
2022-11-12T11:23:33.795Z,13.38
2022-11-12T11:29:09.359Z,13.55
2022-11-12T11:34:45.274Z,13.73
2022-11-12T11:40:19.649Z,13.78
2022-11-12T11:46:05.524Z,13.77
2022-11-12T11:51:43.861Z,13.56
2022-11-12T11:57:12.807Z,13.84
2022-11-12T12:02:50.945Z,13.91
2022-11-12T12:08:18.462Z,13.92
2022-11-12T12:13:54.011Z,13.99
2022-11-12T12:19:28.538Z,13.94
2022-11-12T12:24:53.334Z,14.03
2022-11-12T12:30:20.828Z,13.55
2022-11-12T12:35:49.418Z,14.04
2022-11-12T12:41:17.387Z,14.08
2022-11-12T12:46:44.453Z,14.02
2022-11-12T12:52:06.024Z,14.10
2022-11-12T12:57:38.145Z,14.12
2022-11-12T13:03:00.839Z,14.23
2022-11-12T13:08:26.318Z,14.33
2022-11-12T13:13:48.439Z,14.21
2022-11-12T13:19:10.885Z,14.24
2022-11-12T13:25:03.042Z,14.37
2022-11-12T13:30:59.081Z,14.36
2022-11-12T13:36:29.506Z,14.48
2022-11-12T13:42:15.662Z,14.26
2022-11-12T13:47:38.263Z,14.44
2022-11-12T13:53:01.553Z,14.37
2022-11-12T13:58:30.538Z,14.35
2022-11-12T14:03:53.962Z,14.36
2022-11-12T14:09:34.342Z,14.36
2022-11-12T14:15:09.695Z,14.32
2022-11-12T14:20:36.191Z,13.77
2022-11-12T14:25:59.011Z,14.32
2022-11-12T14:31:25.654Z,13.98
2022-11-12T14:36:48.086Z,14.27
2022-11-12T14:42:16.307Z,14.34
2022-11-12T14:47:37.367Z,14.32
2022-11-12T14:53:03.480Z,14.22
2022-11-12T14:58:27.794Z,14.12
2022-11-12T15:03:48.983Z,14.04
2022-11-12T15:09:10.511Z,13.98
2022-11-12T15:14:34.390Z,13.89
2022-11-12T15:20:02.232Z,13.84
2022-11-12T15:25:26.440Z,13.78
2022-11-12T15:31:03.514Z,13.75
2022-11-12T15:36:25.435Z,13.68
2022-11-12T15:41:46.757Z,13.62
2022-11-12T15:47:18.237Z,13.53
2022-11-12T15:52:39.504Z,13.41
2022-11-12T15:58:00.642Z,13.35
2022-11-12T16:03:23.513Z,13.22
2022-11-12T16:08:44.970Z,13.07
2022-11-12T16:14:11.490Z,12.84
2022-11-12T16:19:38.028Z,12.81
2022-11-12T16:24:59.765Z,12.65
2022-11-12T16:30:23.220Z,12.47
2022-11-12T16:35:46.037Z,12.42
2022-11-12T16:41:10.135Z,12.31
2022-11-12T16:46:36.469Z,12.25
2022-11-12T16:51:59.879Z,12.06
2022-11-12T16:57:21.121Z,12.01
2022-11-12T17:02:46.271Z,11.85
2022-11-12T17:08:14.554Z,11.86
2022-11-12T17:13:37.010Z,11.76
2022-11-12T17:19:01.234Z,11.60
2022-11-12T17:24:26.651Z,11.32
2022-11-12T17:29:47.741Z,11.22
2022-11-12T17:35:09.090Z,11.23
2022-11-12T17:40:32.008Z,11.15
2022-11-12T17:45:55.396Z,11.08
2022-11-12T17:51:18.931Z,11.23
2022-11-12T17:56:41.324Z,11.23
2022-11-12T18:02:02.665Z,11.24
2022-11-12T18:07:23.794Z,11.26
2022-11-12T18:12:46.492Z,11.23
2022-11-12T18:18:07.612Z,11.21
2022-11-12T18:23:28.975Z,11.19
2022-11-12T18:28:53.742Z,11.13
2022-11-12T18:34:15.743Z,11.15
2022-11-12T18:39:36.695Z,10.94
2022-11-12T18:44:59.209Z,10.99
2022-11-12T18:50:20.306Z,10.89
2022-11-12T18:55:41.504Z,10.87
2022-11-12T19:01:05.103Z,10.57
2022-11-12T19:06:28.266Z,10.73
2022-11-12T19:11:49.876Z,10.67
2022-11-12T19:17:12.323Z,10.56
2022-11-12T19:22:33.739Z,10.56
2022-11-12T19:27:54.670Z,10.48
2022-11-12T19:33:17.384Z,10.43
2022-11-12T19:38:38.839Z,10.49
2022-11-12T19:44:00.233Z,10.36
2022-11-12T19:49:22.908Z,10.34
2022-11-12T19:54:44.346Z,10.23
2022-11-12T20:00:07.107Z,10.42
2022-11-12T20:05:30.455Z,10.36
2022-11-12T20:10:52.085Z,10.24
2022-11-12T20:16:17.553Z,10.39
2022-11-12T20:21:43.393Z,10.39
2022-11-12T20:27:05.606Z,10.40
2022-11-12T20:32:26.983Z,10.44
2022-11-12T20:37:50.014Z,10.39
2022-11-12T20:43:11.342Z,9.76
2022-11-12T20:48:32.416Z,10.31
2022-11-12T20:53:59.264Z,10.26
2022-11-12T20:59:21.622Z,10.23
2022-11-12T21:04:42.847Z,10.22
2022-11-12T21:10:06.916Z,9.86
2022-11-12T21:15:29.691Z,10.18
2022-11-12T21:20:52.560Z,10.24
2022-11-12T21:26:16.743Z,10.35
2022-11-12T21:31:38.109Z,10.24
2022-11-12T21:36:59.211Z,10.21
2022-11-12T21:42:21.670Z,9.91
2022-11-12T21:47:42.939Z,10.17
2022-11-12T21:53:04.098Z,10.14
2022-11-12T21:58:29.192Z,10.14
2022-11-12T22:03:52.216Z,10.02
2022-11-12T22:09:13.710Z,9.95
2022-11-12T22:14:35.894Z,9.95
2022-11-12T22:19:57.376Z,9.82
2022-11-12T22:25:18.534Z,9.86
2022-11-12T22:30:40.995Z,9.78
2022-11-12T22:36:02.787Z,9.74
2022-11-12T22:41:27.994Z,9.77
2022-11-12T22:46:50.275Z,9.63
2022-11-12T22:52:11.686Z,9.54
2022-11-12T22:57:33.195Z,8.96
2022-11-12T23:02:55.580Z,9.57
2022-11-12T23:08:16.963Z,9.53
2022-11-12T23:13:39.385Z,9.54
2022-11-12T23:19:02.158Z,9.55
2022-11-12T23:24:23.215Z,9.54
2022-11-12T23:29:44.594Z,9.58
2022-11-12T23:35:08.114Z,9.58
2022-11-12T23:40:31.085Z,9.44
2022-11-12T23:45:52.640Z,9.39
2022-11-12T23:51:16.852Z,9.33
2022-11-12T23:56:37.946Z,8.84
